sensor_id;sensor_type;location;lat;lon;timestamp;P1;durP1;ratioP1;P2;durP2;ratioP2
33696;SDS011;20031;43.416;23.232;2023-04-24T00:02:20;8.27;;;4.35;;
33696;SDS011;20031;43.416;23.232;2023-04-24T00:04:45;9.48;;;4.28;;
33696;SDS011;20031;43.416;23.232;2023-04-24T00:07:11;8.98;;;3.80;;
33696;SDS011;20031;43.416;23.232;2023-04-24T00:09:38;9.68;;;4.05;;
33696;SDS011;20031;43.416;23.232;2023-04-24T00:12:03;14.90;;;4.05;;
33696;SDS011;20031;43.416;23.232;2023-04-24T00:14:30;9.13;;;4.20;;
33696;SDS011;20031;43.416;23.232;2023-04-24T00:16:56;9.20;;;4.20;;
33696;SDS011;20031;43.416;23.232;2023-04-24T00:19:22;8.57;;;4.10;;
33696;SDS011;20031;43.416;23.232;2023-04-24T00:21:47;11.48;;;4.43;;
33696;SDS011;20031;43.416;23.232;2023-04-24T00:24:15;13.48;;;4.72;;
33696;SDS011;20031;43.416;23.232;2023-04-24T00:26:41;10.23;;;4.40;;
33696;SDS011;20031;43.416;23.232;2023-04-24T00:29:07;9.88;;;4.32;;
33696;SDS011;20031;43.416;23.232;2023-04-24T00:31:32;9.48;;;4.13;;
33696;SDS011;20031;43.416;23.232;2023-04-24T00:33:59;12.55;;;4.50;;
33696;SDS011;20031;43.416;23.232;2023-04-24T00:36:26;7.53;;;4.28;;
33696;SDS011;20031;43.416;23.232;2023-04-24T00:38:52;8.90;;;4.20;;
33696;SDS011;20031;43.416;23.232;2023-04-24T00:41:18;6.95;;;4.40;;
33696;SDS011;20031;43.416;23.232;2023-04-24T00:43:44;5.65;;;3.78;;
33696;SDS011;20031;43.416;23.232;2023-04-24T00:46:09;11.93;;;5.00;;
33696;SDS011;20031;43.416;23.232;2023-04-24T00:48:36;6.38;;;4.18;;
33696;SDS011;20031;43.416;23.232;2023-04-24T00:51:04;10.18;;;4.25;;
33696;SDS011;20031;43.416;23.232;2023-04-24T00:53:29;9.65;;;4.43;;
33696;SDS011;20031;43.416;23.232;2023-04-24T00:55:55;8.55;;;4.68;;
33696;SDS011;20031;43.416;23.232;2023-04-24T00:58:21;8.63;;;4.35;;
33696;SDS011;20031;43.416;23.232;2023-04-24T01:00:48;9.32;;;4.57;;
33696;SDS011;20031;43.416;23.232;2023-04-24T01:03:18;8.18;;;4.53;;
33696;SDS011;20031;43.416;23.232;2023-04-24T01:05:45;9.90;;;4.22;;
33696;SDS011;20031;43.416;23.232;2023-04-24T01:08:11;9.13;;;3.90;;
33696;SDS011;20031;43.416;23.232;2023-04-24T01:10:36;14.30;;;4.15;;
33696;SDS011;20031;43.416;23.232;2023-04-24T01:13:04;7.03;;;4.13;;
33696;SDS011;20031;43.416;23.232;2023-04-24T01:15:30;8.38;;;4.10;;
33696;SDS011;20031;43.416;23.232;2023-04-24T01:17:55;11.35;;;5.30;;
33696;SDS011;20031;43.416;23.232;2023-04-24T01:20:21;9.30;;;4.82;;
33696;SDS011;20031;43.416;23.232;2023-04-24T01:22:49;9.23;;;4.75;;
33696;SDS011;20031;43.416;23.232;2023-04-24T01:25:15;9.68;;;4.60;;
33696;SDS011;20031;43.416;23.232;2023-04-24T01:27:40;9.52;;;4.68;;
33696;SDS011;20031;43.416;23.232;2023-04-24T01:30:07;10.82;;;4.70;;
33696;SDS011;20031;43.416;23.232;2023-04-24T01:32:33;9.13;;;4.60;;
33696;SDS011;20031;43.416;23.232;2023-04-24T01:34:58;12.05;;;4.30;;
33696;SDS011;20031;43.416;23.232;2023-04-24T01:37:24;7.80;;;4.22;;
33696;SDS011;20031;43.416;23.232;2023-04-24T01:39:51;7.50;;;4.10;;
33696;SDS011;20031;43.416;23.232;2023-04-24T01:42:17;8.35;;;4.30;;
33696;SDS011;20031;43.416;23.232;2023-04-24T01:44:42;9.25;;;4.10;;
33696;SDS011;20031;43.416;23.232;2023-04-24T01:47:08;8.05;;;4.40;;
33696;SDS011;20031;43.416;23.232;2023-04-24T01:49:34;8.35;;;4.22;;
33696;SDS011;20031;43.416;23.232;2023-04-24T01:51:59;9.23;;;4.28;;
33696;SDS011;20031;43.416;23.232;2023-04-24T01:54:25;8.60;;;4.60;;
33696;SDS011;20031;43.416;23.232;2023-04-24T01:56:50;11.07;;;4.70;;
33696;SDS011;20031;43.416;23.232;2023-04-24T01:59:16;9.68;;;4.90;;
33696;SDS011;20031;43.416;23.232;2023-04-24T02:01:42;11.82;;;5.40;;
33696;SDS011;20031;43.416;23.232;2023-04-24T02:04:08;11.82;;;4.75;;
33696;SDS011;20031;43.416;23.232;2023-04-24T02:06:33;12.70;;;5.30;;
33696;SDS011;20031;43.416;23.232;2023-04-24T02:08:59;9.38;;;4.70;;
33696;SDS011;20031;43.416;23.232;2023-04-24T02:11:26;11.50;;;4.38;;
33696;SDS011;20031;43.416;23.232;2023-04-24T02:13:51;13.68;;;4.75;;
33696;SDS011;20031;43.416;23.232;2023-04-24T02:16:17;9.30;;;4.55;;
33696;SDS011;20031;43.416;23.232;2023-04-24T02:18:43;6.00;;;4.30;;
33696;SDS011;20031;43.416;23.232;2023-04-24T02:21:08;11.45;;;5.00;;
33696;SDS011;20031;43.416;23.232;2023-04-24T02:23:34;7.15;;;4.60;;
33696;SDS011;20031;43.416;23.232;2023-04-24T02:25:59;10.52;;;4.60;;
33696;SDS011;20031;43.416;23.232;2023-04-24T02:28:25;16.00;;;5.13;;
33696;SDS011;20031;43.416;23.232;2023-04-24T02:30:50;8.60;;;4.82;;
33696;SDS011;20031;43.416;23.232;2023-04-24T02:33:16;24.83;;;4.88;;
33696;SDS011;20031;43.416;23.232;2023-04-24T02:35:41;11.45;;;5.13;;
33696;SDS011;20031;43.416;23.232;2023-04-24T02:38:07;7.30;;;4.60;;
33696;SDS011;20031;43.416;23.232;2023-04-24T02:40:32;10.32;;;5.47;;
33696;SDS011;20031;43.416;23.232;2023-04-24T02:42:58;9.68;;;4.78;;
33696;SDS011;20031;43.416;23.232;2023-04-24T02:45:23;14.80;;;5.57;;
33696;SDS011;20031;43.416;23.232;2023-04-24T02:47:48;11.38;;;5.00;;
33696;SDS011;20031;43.416;23.232;2023-04-24T02:50:14;12.40;;;4.88;;
33696;SDS011;20031;43.416;23.232;2023-04-24T02:52:39;10.10;;;4.97;;
33696;SDS011;20031;43.416;23.232;2023-04-24T02:55:05;13.10;;;4.70;;
33696;SDS011;20031;43.416;23.232;2023-04-24T02:57:32;12.55;;;4.90;;
33696;SDS011;20031;43.416;23.232;2023-04-24T02:59:58;13.90;;;5.03;;
33696;SDS011;20031;43.416;23.232;2023-04-24T03:02:23;9.45;;;4.88;;
33696;SDS011;20031;43.416;23.232;2023-04-24T03:04:49;12.27;;;5.15;;
33696;SDS011;20031;43.416;23.232;2023-04-24T03:07:14;9.27;;;5.45;;
33696;SDS011;20031;43.416;23.232;2023-04-24T03:09:40;14.02;;;5.70;;
33696;SDS011;20031;43.416;23.232;2023-04-24T03:12:06;11.90;;;5.03;;
33696;SDS011;20031;43.416;23.232;2023-04-24T03:14:31;17.40;;;5.10;;
33696;SDS011;20031;43.416;23.232;2023-04-24T03:16:57;13.30;;;5.60;;
33696;SDS011;20031;43.416;23.232;2023-04-24T03:19:22;12.85;;;4.45;;
33696;SDS011;20031;43.416;23.232;2023-04-24T03:21:48;10.43;;;4.50;;
33696;SDS011;20031;43.416;23.232;2023-04-24T03:24:14;10.38;;;4.75;;
33696;SDS011;20031;43.416;23.232;2023-04-24T03:26:39;7.95;;;4.78;;
33696;SDS011;20031;43.416;23.232;2023-04-24T03:29:04;8.23;;;4.80;;
33696;SDS011;20031;43.416;23.232;2023-04-24T03:31:30;8.93;;;5.45;;
33696;SDS011;20031;43.416;23.232;2023-04-24T03:33:55;11.50;;;5.68;;
33696;SDS011;20031;43.416;23.232;2023-04-24T03:36:21;10.32;;;5.28;;
33696;SDS011;20031;43.416;23.232;2023-04-24T03:38:46;9.73;;;5.80;;
33696;SDS011;20031;43.416;23.232;2023-04-24T03:41:12;12.52;;;5.90;;
33696;SDS011;20031;43.416;23.232;2023-04-24T03:43:37;14.82;;;5.72;;
33696;SDS011;20031;43.416;23.232;2023-04-24T03:46:03;8.82;;;5.07;;
33696;SDS011;20031;43.416;23.232;2023-04-24T03:48:29;20.10;;;7.93;;
33696;SDS011;20031;43.416;23.232;2023-04-24T03:50:54;11.68;;;5.82;;
33696;SDS011;20031;43.416;23.232;2023-04-24T03:53:20;20.15;;;8.13;;
33696;SDS011;20031;43.416;23.232;2023-04-24T03:55:46;12.02;;;6.70;;
33696;SDS011;20031;43.416;23.232;2023-04-24T03:58:11;14.02;;;6.28;;
33696;SDS011;20031;43.416;23.232;2023-04-24T04:00:38;12.32;;;5.50;;
33696;SDS011;20031;43.416;23.232;2023-04-24T04:03:05;8.23;;;4.78;;
33696;SDS011;20031;43.416;23.232;2023-04-24T04:05:31;20.27;;;6.78;;
33696;SDS011;20031;43.416;23.232;2023-04-24T04:07:56;11.00;;;5.60;;
33696;SDS011;20031;43.416;23.232;2023-04-24T04:10:22;19.10;;;6.40;;
33696;SDS011;20031;43.416;23.232;2023-04-24T04:12:47;10.15;;;6.20;;
33696;SDS011;20031;43.416;23.232;2023-04-24T04:15:13;11.05;;;5.50;;
33696;SDS011;20031;43.416;23.232;2023-04-24T04:17:38;10.80;;;4.80;;
33696;SDS011;20031;43.416;23.232;2023-04-24T04:20:04;12.48;;;5.22;;
33696;SDS011;20031;43.416;23.232;2023-04-24T04:22:34;10.85;;;5.03;;
33696;SDS011;20031;43.416;23.232;2023-04-24T04:25:00;8.52;;;4.50;;
33696;SDS011;20031;43.416;23.232;2023-04-24T04:27:25;9.57;;;4.30;;
33696;SDS011;20031;43.416;23.232;2023-04-24T04:29:51;9.30;;;5.20;;
33696;SDS011;20031;43.416;23.232;2023-04-24T04:32:17;11.10;;;5.10;;
33696;SDS011;20031;43.416;23.232;2023-04-24T04:34:43;15.85;;;6.07;;
33696;SDS011;20031;43.416;23.232;2023-04-24T04:37:10;14.75;;;8.05;;
33696;SDS011;20031;43.416;23.232;2023-04-24T04:39:37;26.45;;;19.15;;
33696;SDS011;20031;43.416;23.232;2023-04-24T04:42:03;13.73;;;7.72;;
33696;SDS011;20031;43.416;23.232;2023-04-24T04:44:28;19.10;;;7.03;;
33696;SDS011;20031;43.416;23.232;2023-04-24T04:46:55;20.77;;;9.93;;
33696;SDS011;20031;43.416;23.232;2023-04-24T04:49:21;18.45;;;6.55;;
33696;SDS011;20031;43.416;23.232;2023-04-24T04:51:48;20.65;;;6.45;;
33696;SDS011;20031;43.416;23.232;2023-04-24T04:54:15;12.25;;;5.43;;
33696;SDS011;20031;43.416;23.232;2023-04-24T04:56:41;13.10;;;6.65;;
33696;SDS011;20031;43.416;23.232;2023-04-24T04:59:06;10.88;;;4.93;;
33696;SDS011;20031;43.416;23.232;2023-04-24T05:01:32;12.52;;;5.38;;
33696;SDS011;20031;43.416;23.232;2023-04-24T05:03:57;18.58;;;5.70;;
33696;SDS011;20031;43.416;23.232;2023-04-24T05:06:23;15.23;;;6.03;;
33696;SDS011;20031;43.416;23.232;2023-04-24T05:08:48;18.67;;;6.50;;
33696;SDS011;20031;43.416;23.232;2023-04-24T05:11:14;14.27;;;6.13;;
33696;SDS011;20031;43.416;23.232;2023-04-24T05:13:40;17.27;;;5.65;;
33696;SDS011;20031;43.416;23.232;2023-04-24T05:16:05;15.00;;;5.63;;
33696;SDS011;20031;43.416;23.232;2023-04-24T05:18:31;8.27;;;5.15;;
33696;SDS011;20031;43.416;23.232;2023-04-24T05:20:57;11.35;;;5.40;;
33696;SDS011;20031;43.416;23.232;2023-04-24T05:23:22;10.07;;;5.68;;
33696;SDS011;20031;43.416;23.232;2023-04-24T05:25:48;8.98;;;5.40;;
33696;SDS011;20031;43.416;23.232;2023-04-24T05:28:13;13.35;;;5.25;;
33696;SDS011;20031;43.416;23.232;2023-04-24T05:30:39;12.30;;;5.53;;
33696;SDS011;20031;43.416;23.232;2023-04-24T05:33:04;21.58;;;6.82;;
33696;SDS011;20031;43.416;23.232;2023-04-24T05:35:30;24.65;;;9.90;;
33696;SDS011;20031;43.416;23.232;2023-04-24T05:37:55;41.25;;;8.75;;
33696;SDS011;20031;43.416;23.232;2023-04-24T05:40:21;33.35;;;9.18;;
33696;SDS011;20031;43.416;23.232;2023-04-24T05:42:46;21.65;;;8.68;;
33696;SDS011;20031;43.416;23.232;2023-04-24T05:45:11;19.75;;;7.40;;
33696;SDS011;20031;43.416;23.232;2023-04-24T05:47:41;21.27;;;8.20;;
33696;SDS011;20031;43.416;23.232;2023-04-24T05:50:08;18.10;;;6.95;;
33696;SDS011;20031;43.416;23.232;2023-04-24T05:52:34;20.05;;;6.57;;
33696;SDS011;20031;43.416;23.232;2023-04-24T05:54:59;14.05;;;5.95;;
33696;SDS011;20031;43.416;23.232;2023-04-24T05:57:25;33.90;;;9.02;;
33696;SDS011;20031;43.416;23.232;2023-04-24T05:59:50;18.10;;;5.50;;
33696;SDS011;20031;43.416;23.232;2023-04-24T06:02:16;18.08;;;5.70;;
33696;SDS011;20031;43.416;23.232;2023-04-24T06:04:47;10.88;;;6.13;;
33696;SDS011;20031;43.416;23.232;2023-04-24T06:07:15;13.57;;;5.72;;
33696;SDS011;20031;43.416;23.232;2023-04-24T06:09:42;17.70;;;7.53;;
33696;SDS011;20031;43.416;23.232;2023-04-24T06:12:08;31.02;;;8.73;;
33696;SDS011;20031;43.416;23.232;2023-04-24T06:14:33;17.67;;;6.68;;
33696;SDS011;20031;43.416;23.232;2023-04-24T06:16:59;27.98;;;7.53;;
33696;SDS011;20031;43.416;23.232;2023-04-24T06:19:25;37.30;;;10.02;;
33696;SDS011;20031;43.416;23.232;2023-04-24T06:21:50;24.92;;;7.13;;
33696;SDS011;20031;43.416;23.232;2023-04-24T06:24:15;12.95;;;5.90;;
33696;SDS011;20031;43.416;23.232;2023-04-24T06:26:41;13.55;;;6.30;;
33696;SDS011;20031;43.416;23.232;2023-04-24T06:29:07;10.00;;;5.40;;
33696;SDS011;20031;43.416;23.232;2023-04-24T06:31:32;23.15;;;6.80;;
33696;SDS011;20031;43.416;23.232;2023-04-24T06:34:02;13.48;;;6.30;;
33696;SDS011;20031;43.416;23.232;2023-04-24T06:36:28;91.88;;;44.00;;
33696;SDS011;20031;43.416;23.232;2023-04-24T06:38:53;205.27;;;79.90;;
33696;SDS011;20031;43.416;23.232;2023-04-24T06:41:19;208.02;;;81.13;;
33696;SDS011;20031;43.416;23.232;2023-04-24T06:43:44;33.90;;;14.20;;
33696;SDS011;20031;43.416;23.232;2023-04-24T06:46:10;33.33;;;19.77;;
33696;SDS011;20031;43.416;23.232;2023-04-24T06:48:35;29.48;;;17.58;;
33696;SDS011;20031;43.416;23.232;2023-04-24T06:51:01;16.95;;;6.78;;
33696;SDS011;20031;43.416;23.232;2023-04-24T06:53:26;8.77;;;6.35;;
33696;SDS011;20031;43.416;23.232;2023-04-24T06:55:52;8.93;;;5.78;;
33696;SDS011;20031;43.416;23.232;2023-04-24T06:58:18;11.80;;;6.20;;
33696;SDS011;20031;43.416;23.232;2023-04-24T07:00:43;13.75;;;6.50;;
33696;SDS011;20031;43.416;23.232;2023-04-24T07:03:08;10.90;;;6.55;;
33696;SDS011;20031;43.416;23.232;2023-04-24T07:05:34;13.73;;;6.30;;
33696;SDS011;20031;43.416;23.232;2023-04-24T07:08:00;14.38;;;6.18;;
33696;SDS011;20031;43.416;23.232;2023-04-24T07:10:26;21.00;;;7.05;;
33696;SDS011;20031;43.416;23.232;2023-04-24T07:12:53;21.27;;;6.93;;
33696;SDS011;20031;43.416;23.232;2023-04-24T07:15:19;17.27;;;6.65;;
33696;SDS011;20031;43.416;23.232;2023-04-24T07:17:44;16.95;;;7.30;;
33696;SDS011;20031;43.416;23.232;2023-04-24T07:20:10;12.23;;;6.05;;
33696;SDS011;20031;43.416;23.232;2023-04-24T07:22:39;8.63;;;5.47;;
33696;SDS011;20031;43.416;23.232;2023-04-24T07:25:05;9.70;;;6.10;;
33696;SDS011;20031;43.416;23.232;2023-04-24T07:27:32;31.50;;;9.18;;
33696;SDS011;20031;43.416;23.232;2023-04-24T07:29:57;25.73;;;7.72;;
33696;SDS011;20031;43.416;23.232;2023-04-24T07:32:23;12.68;;;5.95;;
33696;SDS011;20031;43.416;23.232;2023-04-24T07:34:49;11.25;;;6.35;;
33696;SDS011;20031;43.416;23.232;2023-04-24T07:37:15;12.57;;;6.32;;
33696;SDS011;20031;43.416;23.232;2023-04-24T07:39:43;15.82;;;6.00;;
33696;SDS011;20031;43.416;23.232;2023-04-24T07:42:09;17.92;;;7.15;;
33696;SDS011;20031;43.416;23.232;2023-04-24T07:44:34;12.13;;;6.13;;
33696;SDS011;20031;43.416;23.232;2023-04-24T07:47:01;18.48;;;6.85;;
33696;SDS011;20031;43.416;23.232;2023-04-24T07:49:26;56.20;;;14.00;;
33696;SDS011;20031;43.416;23.232;2023-04-24T07:51:52;27.92;;;8.35;;
33696;SDS011;20031;43.416;23.232;2023-04-24T07:54:18;14.77;;;6.90;;
33696;SDS011;20031;43.416;23.232;2023-04-24T07:56:43;23.83;;;7.80;;
33696;SDS011;20031;43.416;23.232;2023-04-24T07:59:09;27.25;;;9.65;;
33696;SDS011;20031;43.416;23.232;2023-04-24T08:01:36;18.70;;;6.88;;
33696;SDS011;20031;43.416;23.232;2023-04-24T08:04:02;21.58;;;7.38;;
33696;SDS011;20031;43.416;23.232;2023-04-24T08:06:27;21.30;;;8.05;;
33696;SDS011;20031;43.416;23.232;2023-04-24T08:08:57;39.05;;;8.32;;
33696;SDS011;20031;43.416;23.232;2023-04-24T08:11:23;13.38;;;6.60;;
33696;SDS011;20031;43.416;23.232;2023-04-24T08:13:50;12.15;;;6.72;;
33696;SDS011;20031;43.416;23.232;2023-04-24T08:16:15;14.13;;;6.15;;
33696;SDS011;20031;43.416;23.232;2023-04-24T08:18:40;16.67;;;7.07;;
33696;SDS011;20031;43.416;23.232;2023-04-24T08:21:06;15.48;;;7.20;;
33696;SDS011;20031;43.416;23.232;2023-04-24T08:23:31;12.88;;;7.22;;
33696;SDS011;20031;43.416;23.232;2023-04-24T08:25:58;15.48;;;6.40;;
33696;SDS011;20031;43.416;23.232;2023-04-24T08:28:26;16.50;;;5.68;;
33696;SDS011;20031;43.416;23.232;2023-04-24T08:30:52;11.52;;;6.05;;
33696;SDS011;20031;43.416;23.232;2023-04-24T08:33:20;17.85;;;7.20;;
33696;SDS011;20031;43.416;23.232;2023-04-24T08:35:46;49.67;;;8.68;;
33696;SDS011;20031;43.416;23.232;2023-04-24T08:38:12;15.52;;;6.50;;
33696;SDS011;20031;43.416;23.232;2023-04-24T08:40:37;37.65;;;9.93;;
33696;SDS011;20031;43.416;23.232;2023-04-24T08:43:04;37.78;;;10.38;;
33696;SDS011;20031;43.416;23.232;2023-04-24T08:45:30;27.13;;;9.95;;
33696;SDS011;20031;43.416;23.232;2023-04-24T08:47:57;24.58;;;8.52;;
33696;SDS011;20031;43.416;23.232;2023-04-24T08:50:24;28.35;;;8.65;;
33696;SDS011;20031;43.416;23.232;2023-04-24T08:52:51;17.17;;;6.30;;
33696;SDS011;20031;43.416;23.232;2023-04-24T08:55:21;23.63;;;8.27;;
33696;SDS011;20031;43.416;23.232;2023-04-24T08:57:50;25.33;;;8.70;;
33696;SDS011;20031;43.416;23.232;2023-04-24T09:00:18;19.33;;;7.53;;
33696;SDS011;20031;43.416;23.232;2023-04-24T09:02:44;34.15;;;10.35;;
33696;SDS011;20031;43.416;23.232;2023-04-24T09:05:12;20.27;;;7.30;;
33696;SDS011;20031;43.416;23.232;2023-04-24T09:07:39;13.95;;;6.78;;
33696;SDS011;20031;43.416;23.232;2023-04-24T09:10:08;11.50;;;6.10;;
33696;SDS011;20031;43.416;23.232;2023-04-24T09:12:34;14.65;;;5.97;;
33696;SDS011;20031;43.416;23.232;2023-04-24T09:15:02;13.23;;;6.50;;
33696;SDS011;20031;43.416;23.232;2023-04-24T09:17:30;14.25;;;6.63;;
33696;SDS011;20031;43.416;23.232;2023-04-24T09:19:56;17.25;;;7.15;;
33696;SDS011;20031;43.416;23.232;2023-04-24T09:22:22;24.58;;;8.50;;
33696;SDS011;20031;43.416;23.232;2023-04-24T09:24:59;15.98;;;6.65;;
33696;SDS011;20031;43.416;23.232;2023-04-24T09:27:32;13.30;;;5.78;;
33696;SDS011;20031;43.416;23.232;2023-04-24T09:29:59;19.23;;;6.20;;
33696;SDS011;20031;43.416;23.232;2023-04-24T09:32:25;17.95;;;5.90;;
33696;SDS011;20031;43.416;23.232;2023-04-24T09:37:39;11.13;;;5.43;;
33696;SDS011;20031;43.416;23.232;2023-04-24T09:42:39;12.10;;;4.53;;
33696;SDS011;20031;43.416;23.232;2023-04-24T09:45:09;12.57;;;5.05;;
33696;SDS011;20031;43.416;23.232;2023-04-24T09:47:36;9.65;;;5.30;;
33696;SDS011;20031;43.416;23.232;2023-04-24T09:50:09;11.50;;;5.60;;
33696;SDS011;20031;43.416;23.232;2023-04-24T09:52:39;11.05;;;5.10;;
33696;SDS011;20031;43.416;23.232;2023-04-24T09:55:15;10.80;;;5.10;;
33696;SDS011;20031;43.416;23.232;2023-04-24T10:00:22;12.55;;;5.43;;
33696;SDS011;20031;43.416;23.232;2023-04-24T10:03:02;12.93;;;4.97;;
33696;SDS011;20031;43.416;23.232;2023-04-24T10:05:30;11.02;;;5.50;;
33696;SDS011;20031;43.416;23.232;2023-04-24T10:08:03;9.45;;;4.80;;
33696;SDS011;20031;43.416;23.232;2023-04-24T10:10:34;7.18;;;4.80;;
33696;SDS011;20031;43.416;23.232;2023-04-24T10:13:05;16.40;;;6.13;;
33696;SDS011;20031;43.416;23.232;2023-04-24T10:15:32;16.52;;;6.20;;
33696;SDS011;20031;43.416;23.232;2023-04-24T10:17:58;23.70;;;6.90;;
33696;SDS011;20031;43.416;23.232;2023-04-24T10:20:26;12.88;;;5.95;;
33696;SDS011;20031;43.416;23.232;2023-04-24T10:22:54;16.08;;;5.15;;
33696;SDS011;20031;43.416;23.232;2023-04-24T10:25:25;11.98;;;5.30;;
33696;SDS011;20031;43.416;23.232;2023-04-24T10:27:55;10.05;;;5.15;;
33696;SDS011;20031;43.416;23.232;2023-04-24T10:30:23;14.75;;;5.30;;
33696;SDS011;20031;43.416;23.232;2023-04-24T10:32:48;12.00;;;5.32;;
33696;SDS011;20031;43.416;23.232;2023-04-24T10:35:15;16.95;;;5.50;;
33696;SDS011;20031;43.416;23.232;2023-04-24T10:37:46;13.88;;;4.70;;
33696;SDS011;20031;43.416;23.232;2023-04-24T10:40:26;8.38;;;4.82;;
33696;SDS011;20031;43.416;23.232;2023-04-24T10:42:58;12.30;;;5.45;;
33696;SDS011;20031;43.416;23.232;2023-04-24T10:45:24;13.77;;;5.53;;
33696;SDS011;20031;43.416;23.232;2023-04-24T10:48:08;10.57;;;4.70;;
33696;SDS011;20031;43.416;23.232;2023-04-24T10:50:50;9.63;;;4.30;;
33696;SDS011;20031;43.416;23.232;2023-04-24T10:53:20;17.90;;;5.05;;
33696;SDS011;20031;43.416;23.232;2023-04-24T10:55:57;8.80;;;5.00;;
33696;SDS011;20031;43.416;23.232;2023-04-24T10:58:24;14.05;;;4.90;;
33696;SDS011;20031;43.416;23.232;2023-04-24T11:01:00;21.70;;;5.65;;
33696;SDS011;20031;43.416;23.232;2023-04-24T11:03:26;13.43;;;5.50;;
33696;SDS011;20031;43.416;23.232;2023-04-24T11:06:06;7.15;;;4.63;;
33696;SDS011;20031;43.416;23.232;2023-04-24T11:08:42;8.65;;;5.25;;
33696;SDS011;20031;43.416;23.232;2023-04-24T11:11:16;12.32;;;4.80;;
33696;SDS011;20031;43.416;23.232;2023-04-24T11:16:27;12.95;;;4.97;;
33696;SDS011;20031;43.416;23.232;2023-04-24T11:19:06;11.82;;;4.88;;
33696;SDS011;20031;43.416;23.232;2023-04-24T11:21:47;13.85;;;4.65;;
33696;SDS011;20031;43.416;23.232;2023-04-24T11:34:54;9.57;;;5.60;;
33696;SDS011;20031;43.416;23.232;2023-04-24T11:37:35;13.70;;;5.55;;
33696;SDS011;20031;43.416;23.232;2023-04-24T11:40:01;11.18;;;5.35;;
33696;SDS011;20031;43.416;23.232;2023-04-24T11:42:28;13.85;;;5.93;;
33696;SDS011;20031;43.416;23.232;2023-04-24T11:44:59;12.95;;;5.95;;
33696;SDS011;20031;43.416;23.232;2023-04-24T11:47:30;9.65;;;5.93;;
33696;SDS011;20031;43.416;23.232;2023-04-24T11:49:58;35.58;;;8.55;;
33696;SDS011;20031;43.416;23.232;2023-04-24T11:52:24;12.38;;;7.18;;
33696;SDS011;20031;43.416;23.232;2023-04-24T11:54:50;13.48;;;6.38;;
33696;SDS011;20031;43.416;23.232;2023-04-24T11:57:16;10.27;;;6.70;;
33696;SDS011;20031;43.416;23.232;2023-04-24T11:59:44;11.43;;;7.18;;
33696;SDS011;20031;43.416;23.232;2023-04-24T12:02:19;15.63;;;6.88;;
33696;SDS011;20031;43.416;23.232;2023-04-24T12:04:45;16.23;;;6.65;;
33696;SDS011;20031;43.416;23.232;2023-04-24T12:07:11;17.95;;;6.95;;
33696;SDS011;20031;43.416;23.232;2023-04-24T12:09:56;17.45;;;6.85;;
33696;SDS011;20031;43.416;23.232;2023-04-24T12:12:24;12.25;;;6.60;;
33696;SDS011;20031;43.416;23.232;2023-04-24T12:14:55;15.05;;;8.00;;
33696;SDS011;20031;43.416;23.232;2023-04-24T12:17:28;14.18;;;7.10;;
33696;SDS011;20031;43.416;23.232;2023-04-24T12:19:59;10.88;;;7.10;;
33696;SDS011;20031;43.416;23.232;2023-04-24T12:22:26;10.60;;;6.40;;
33696;SDS011;20031;43.416;23.232;2023-04-24T12:24:57;13.23;;;6.47;;
33696;SDS011;20031;43.416;23.232;2023-04-24T12:27:33;20.65;;;6.75;;
33696;SDS011;20031;43.416;23.232;2023-04-24T12:29:59;14.65;;;6.00;;
33696;SDS011;20031;43.416;23.232;2023-04-24T12:32:26;13.70;;;6.45;;
33696;SDS011;20031;43.416;23.232;2023-04-24T12:34:53;10.27;;;5.47;;
33696;SDS011;20031;43.416;23.232;2023-04-24T12:37:19;9.60;;;5.75;;
33696;SDS011;20031;43.416;23.232;2023-04-24T12:42:51;17.13;;;5.97;;
33696;SDS011;20031;43.416;23.232;2023-04-24T12:45:17;14.35;;;5.95;;
33696;SDS011;20031;43.416;23.232;2023-04-24T12:47:44;10.68;;;5.85;;
33696;SDS011;20031;43.416;23.232;2023-04-24T12:50:11;11.30;;;5.38;;
33696;SDS011;20031;43.416;23.232;2023-04-24T12:52:37;9.50;;;5.65;;
33696;SDS011;20031;43.416;23.232;2023-04-24T12:55:04;18.67;;;8.77;;
33696;SDS011;20031;43.416;23.232;2023-04-24T12:57:33;20.33;;;6.80;;
33696;SDS011;20031;43.416;23.232;2023-04-24T13:00:00;19.25;;;6.85;;
33696;SDS011;20031;43.416;23.232;2023-04-24T13:02:29;154.85;;;46.75;;
33696;SDS011;20031;43.416;23.232;2023-04-24T13:04:56;21.27;;;7.50;;
33696;SDS011;20031;43.416;23.232;2023-04-24T13:07:22;26.52;;;6.90;;
33696;SDS011;20031;43.416;23.232;2023-04-24T13:09:48;17.50;;;5.60;;
33696;SDS011;20031;43.416;23.232;2023-04-24T13:12:15;18.23;;;4.97;;
33696;SDS011;20031;43.416;23.232;2023-04-24T13:14:41;10.35;;;5.20;;
33696;SDS011;20031;43.416;23.232;2023-04-24T13:17:06;17.25;;;5.85;;
33696;SDS011;20031;43.416;23.232;2023-04-24T13:19:36;15.98;;;5.47;;
33696;SDS011;20031;43.416;23.232;2023-04-24T13:22:03;19.85;;;6.15;;
33696;SDS011;20031;43.416;23.232;2023-04-24T13:24:29;10.40;;;5.28;;
33696;SDS011;20031;43.416;23.232;2023-04-24T13:26:54;8.43;;;5.05;;
33696;SDS011;20031;43.416;23.232;2023-04-24T13:29:21;20.95;;;8.10;;
33696;SDS011;20031;43.416;23.232;2023-04-24T13:31:49;22.00;;;8.85;;
33696;SDS011;20031;43.416;23.232;2023-04-24T13:34:15;32.70;;;12.85;;
33696;SDS011;20031;43.416;23.232;2023-04-24T13:36:41;52.55;;;17.73;;
33696;SDS011;20031;43.416;23.232;2023-04-24T13:39:06;23.95;;;8.95;;
33696;SDS011;20031;43.416;23.232;2023-04-24T13:41:32;21.95;;;7.50;;
33696;SDS011;20031;43.416;23.232;2023-04-24T13:43:59;26.65;;;6.88;;
33696;SDS011;20031;43.416;23.232;2023-04-24T13:46:24;16.35;;;5.15;;
33696;SDS011;20031;43.416;23.232;2023-04-24T13:48:49;22.23;;;4.47;;
33696;SDS011;20031;43.416;23.232;2023-04-24T13:51:15;58.60;;;5.90;;
33696;SDS011;20031;43.416;23.232;2023-04-24T13:53:41;11.10;;;3.85;;
33696;SDS011;20031;43.416;23.232;2023-04-24T13:56:06;16.23;;;4.72;;
33696;SDS011;20031;43.416;23.232;2023-04-24T13:58:32;36.75;;;5.55;;
33696;SDS011;20031;43.416;23.232;2023-04-24T14:00:58;30.42;;;6.15;;
33696;SDS011;20031;43.416;23.232;2023-04-24T14:03:23;31.27;;;6.82;;
33696;SDS011;20031;43.416;23.232;2023-04-24T14:05:49;27.25;;;7.13;;
33696;SDS011;20031;43.416;23.232;2023-04-24T14:08:14;21.92;;;5.70;;
33696;SDS011;20031;43.416;23.232;2023-04-24T14:10:40;19.60;;;4.57;;
33696;SDS011;20031;43.416;23.232;2023-04-24T14:13:05;15.48;;;4.53;;
33696;SDS011;20031;43.416;23.232;2023-04-24T14:15:31;13.23;;;4.32;;
33696;SDS011;20031;43.416;23.232;2023-04-24T14:17:56;24.55;;;5.00;;
33696;SDS011;20031;43.416;23.232;2023-04-24T14:20:22;15.73;;;5.40;;
33696;SDS011;20031;43.416;23.232;2023-04-24T14:22:48;15.05;;;5.57;;
33696;SDS011;20031;43.416;23.232;2023-04-24T14:25:13;40.30;;;8.85;;
33696;SDS011;20031;43.416;23.232;2023-04-24T14:27:39;15.00;;;5.80;;
33696;SDS011;20031;43.416;23.232;2023-04-24T14:30:05;28.17;;;7.53;;
33696;SDS011;20031;43.416;23.232;2023-04-24T14:32:31;25.63;;;6.70;;
33696;SDS011;20031;43.416;23.232;2023-04-24T14:34:56;14.13;;;4.50;;
33696;SDS011;20031;43.416;23.232;2023-04-24T14:37:22;13.07;;;4.43;;
33696;SDS011;20031;43.416;23.232;2023-04-24T14:39:47;11.85;;;4.00;;
33696;SDS011;20031;43.416;23.232;2023-04-24T14:42:13;11.63;;;4.50;;
33696;SDS011;20031;43.416;23.232;2023-04-24T14:44:38;8.70;;;4.53;;
33696;SDS011;20031;43.416;23.232;2023-04-24T14:47:04;28.52;;;7.90;;